TimeCST,TemperatureF,Dew PointF,Humidity,Sea Level PressureIn,VisibilityMPH,Wind Direction,Wind SpeedMPH,Gust SpeedMPH,PrecipitationIn,Events,Conditions,WindDirDegrees,DateUTC
12:15 AM,46.4,32.0,57,30.39,10.0,Calm,Calm,-,N/A,,Overcast,0,2012-11-14 06:15:00
12:55 AM,48.2,32.0,54,30.39,10.0,Calm,Calm,-,N/A,,Overcast,0,2012-11-14 06:55:00
1:15 AM,46.4,32.0,57,30.39,5.0,Calm,Calm,-,N/A,,Overcast,0,2012-11-14 07:15:00
1:35 AM,46.4,32.0,57,30.39,10.0,Calm,Calm,-,N/A,,Overcast,0,2012-11-14 07:35:00
1:55 AM,46.4,32.0,57,30.40,10.0,Calm,Calm,-,N/A,,Overcast,0,2012-11-14 07:55:00
2:15 AM,46.4,32.0,57,30.40,10.0,Calm,Calm,-,N/A,,Overcast,0,2012-11-14 08:15:00
2:35 AM,46.4,32.0,57,30.40,10.0,Calm,Calm,-,N/A,,Mostly Cloudy,0,2012-11-14 08:35:00
2:55 AM,42.8,32.0,66,30.40,4.0,Calm,Calm,-,N/A,,Mostly Cloudy,0,2012-11-14 08:55:00
3:15 AM,42.8,32.0,66,30.39,5.0,Calm,Calm,-,N/A,,Mostly Cloudy,0,2012-11-14 09:15:00
3:35 AM,42.8,32.0,66,30.39,0.8,Calm,Calm,-,N/A,,Mostly Cloudy,0,2012-11-14 09:35:00
3:55 AM,42.8,32.0,66,30.39,10.0,Calm,Calm,-,N/A,,Clear,0,2012-11-14 09:55:00
4:15 AM,42.8,32.0,66,30.39,10.0,Calm,Calm,-,N/A,,Clear,0,2012-11-14 10:15:00
4:35 AM,41.0,32.0,70,30.39,10.0,Calm,Calm,-,N/A,,Clear,0,2012-11-14 10:35:00
4:55 AM,41.0,32.0,70,30.39,10.0,Calm,Calm,-,N/A,,Clear,0,2012-11-14 10:55:00
5:15 AM,41.0,32.0,70,30.39,10.0,Calm,Calm,-,N/A,,Clear,0,2012-11-14 11:15:00
5:35 AM,37.4,32.0,81,30.39,1.2,Calm,Calm,-,N/A,,Unknown,0,2012-11-14 11:35:00
5:55 AM,33.8,32.0,93,30.40,4.0,Calm,Calm,-,N/A,,Clear,0,2012-11-14 11:55:00
6:15 AM,37.4,32.0,81,30.40,10.0,Calm,Calm,-,N/A,,Clear,0,2012-11-14 12:15:00
6:35 AM,37.4,32.0,81,30.41,10.0,Calm,Calm,-,N/A,,Clear,0,2012-11-14 12:35:00
6:55 AM,35.6,32.0,87,30.41,10.0,Calm,Calm,-,N/A,,Clear,0,2012-11-14 12:55:00
7:15 AM,35.6,32.0,87,30.41,5.0,Calm,Calm,-,N/A,,Clear,0,2012-11-14 13:15:00
7:35 AM,35.6,32.0,87,30.41,10.0,Calm,Calm,-,N/A,,Clear,0,2012-11-14 13:35:00
7:55 AM,37.4,33.8,87,30.42,10.0,Calm,Calm,-,N/A,,Clear,0,2012-11-14 13:55:00
8:15 AM,42.8,32.0,66,30.43,4.0,Calm,Calm,-,N/A,,Clear,0,2012-11-14 14:15:00
8:35 AM,44.6,32.0,61,30.44,10.0,Calm,Calm,-,N/A,,Clear,0,2012-11-14 14:35:00
8:55 AM,46.4,32.0,57,30.44,10.0,SE,4.6,-,N/A,,Clear,130,2012-11-14 14:55:00
9:15 AM,50.0,32.0,50,30.45,10.0,SE,3.5,-,N/A,,Clear,130,2012-11-14 15:15:00
9:55 AM,51.8,32.0,47,30.45,10.0,SSE,4.6,-,N/A,,Clear,160,2012-11-14 15:55:00
10:15 AM,51.8,30.2,44,30.45,10.0,Calm,Calm,-,N/A,,Clear,0,2012-11-14 16:15:00
10:35 AM,53.6,28.4,38,30.45,10.0,ESE,3.5,-,N/A,,Clear,110,2012-11-14 16:35:00
10:55 AM,55.4,28.4,36,30.44,10.0,SSW,4.6,-,N/A,,Clear,210,2012-11-14 16:55:00
11:15 AM,55.4,28.4,36,30.44,10.0,Calm,Calm,-,N/A,,Clear,0,2012-11-14 17:15:00
11:35 AM,55.4,28.4,36,30.42,10.0,ESE,4.6,-,N/A,,Clear,110,2012-11-14 17:35:00
11:55 AM,55.4,28.4,36,30.41,10.0,Calm,Calm,-,N/A,,Clear,0,2012-11-14 17:55:00
12:15 PM,55.4,28.4,36,30.40,10.0,South,4.6,-,N/A,,Clear,170,2012-11-14 18:15:00
12:35 PM,59.0,26.6,29,30.39,10.0,Calm,Calm,-,N/A,,Clear,0,2012-11-14 18:35:00
12:55 PM,59.0,28.4,31,30.38,10.0,NNE,3.5,-,N/A,,Clear,20,2012-11-14 18:55:00
1:15 PM,59.0,26.6,29,30.37,10.0,South,3.5,-,N/A,,Clear,170,2012-11-14 19:15:00
1:35 PM,59.0,26.6,29,30.36,10.0,Calm,Calm,-,N/A,,Clear,0,2012-11-14 19:35:00
1:55 PM,59.0,26.6,29,30.35,10.0,Calm,Calm,-,N/A,,Clear,0,2012-11-14 19:55:00
2:15 PM,59.0,26.6,29,30.34,10.0,Calm,Calm,-,N/A,,Clear,0,2012-11-14 20:15:00
2:55 PM,60.8,26.6,27,30.33,10.0,NE,3.5,-,N/A,,Clear,40,2012-11-14 20:55:00
3:15 PM,60.8,26.6,27,30.33,10.0,NNW,5.8,-,N/A,,Clear,340,2012-11-14 21:15:00
3:35 PM,60.8,26.6,27,30.32,10.0,ENE,5.8,-,N/A,,Clear,60,2012-11-14 21:35:00
3:55 PM,59.0,26.6,29,30.32,10.0,Calm,Calm,-,N/A,,Clear,0,2012-11-14 21:55:00
4:15 PM,59.0,26.6,29,30.32,10.0,NNW,4.6,-,N/A,,Clear,340,2012-11-14 22:15:00
4:35 PM,59.0,26.6,29,30.32,10.0,North,3.5,-,N/A,,Clear,360,2012-11-14 22:35:00
4:55 PM,57.2,26.6,31,30.31,10.0,North,4.6,-,N/A,,Clear,10,2012-11-14 22:55:00
5:15 PM,55.4,26.6,33,30.31,10.0,Calm,Calm,-,N/A,,Clear,0,2012-11-14 23:15:00
5:35 PM,55.4,28.4,36,30.30,10.0,Calm,Calm,-,N/A,,Clear,0,2012-11-14 23:35:00
5:55 PM,55.4,26.6,33,30.30,10.0,Calm,Calm,-,N/A,,Clear,0,2012-11-14 23:55:00
6:15 PM,53.6,26.6,35,30.30,10.0,East,4.6,-,N/A,,Clear,80,2012-11-15 00:15:00
6:35 PM,50.0,28.4,43,30.30,10.0,East,3.5,-,N/A,,Clear,100,2012-11-15 00:35:00
6:55 PM,50.0,28.4,43,30.32,10.0,Calm,Calm,-,N/A,,Clear,0,2012-11-15 00:55:00
7:15 PM,50.0,28.4,43,30.33,10.0,Calm,Calm,-,N/A,,Clear,0,2012-11-15 01:15:00
7:35 PM,46.4,28.4,50,30.32,10.0,Calm,Calm,-,N/A,,Clear,0,2012-11-15 01:35:00
7:55 PM,46.4,28.4,50,30.32,10.0,Calm,Calm,-,N/A,,Clear,0,2012-11-15 01:55:00
8:15 PM,44.6,24.8,46,30.31,10.0,SE,4.6,-,N/A,,Clear,140,2012-11-15 02:15:00
8:35 PM,44.6,28.4,53,30.32,10.0,SSE,3.5,-,N/A,,Clear,150,2012-11-15 02:35:00
8:55 PM,44.6,28.4,53,30.32,10.0,SSE,3.5,-,N/A,,Clear,150,2012-11-15 02:55:00
9:15 PM,42.8,28.4,57,30.33,10.0,SSE,3.5,-,N/A,,Clear,160,2012-11-15 03:15:00
9:35 PM,42.8,28.4,57,30.32,10.0,Calm,Calm,-,N/A,,Clear,0,2012-11-15 03:35:00
9:55 PM,41.0,28.4,61,30.32,10.0,Calm,Calm,-,N/A,,Clear,0,2012-11-15 03:55:00
10:15 PM,41.0,28.4,61,30.32,10.0,Calm,Calm,-,N/A,,Clear,0,2012-11-15 04:15:00
10:35 PM,42.8,28.4,57,30.32,10.0,SSE,3.5,-,N/A,,Clear,150,2012-11-15 04:35:00
10:55 PM,39.2,26.6,61,30.32,10.0,SE,3.5,-,N/A,,Clear,130,2012-11-15 04:55:00
11:15 PM,39.2,26.6,61,30.32,10.0,SE,3.5,-,N/A,,Clear,130,2012-11-15 05:15:00
11:35 PM,41.0,28.4,61,30.31,10.0,Calm,Calm,-,N/A,,Clear,0,2012-11-15 05:35:00
11:55 PM,41.0,26.6,57,30.31,10.0,SE,3.5,-,N/A,,Clear,140,2012-11-15 05:55:00